Time;durP1;ratioP1;P1;durP2;ratioP2;P2;SDS_P1;SDS_P2;PMS_P1;PMS_P2;Temp;Humidity;BMP_temperature;BMP_pressure;BME280_temperature;BME280_humidity;BME280_pressure;Samples;Min_cycle;Max_cycle;Signal;HPM_P1;HPM_P2
2024/03/16 00:00:07;;;;;;;19.05;3.83;;;;;;;10.05;100.00;69515.88;5054540;28;20438;-48
2024/03/16 00:02:35;;;;;;;19.33;3.47;;;;;;;10.05;100.00;69513.28;5055182;28;20533;-48
2024/03/16 00:05:04;;;;;;;13.07;3.10;;;;;;;10.06;100.00;69509.25;5054860;28;20083;-46
2024/03/16 00:07:32;;;;;;;20.15;3.28;;;;;;;10.03;100.00;69514.13;5054661;28;20551;-47
2024/03/16 00:10:00;;;;;;;18.35;3.60;;;;;;;10.01;100.00;69509.22;5053687;28;20041;-49
2024/03/16 00:12:29;;;;;;;16.95;3.97;;;;;;;10.02;100.00;69512.41;5035740;28;20627;-48
2024/03/16 00:14:57;;;;;;;18.35;4.00;;;;;;;10.03;100.00;69508.34;5052808;28;20048;-49
2024/03/16 00:17:25;;;;;;;19.35;4.38;;;;;;;10.02;100.00;69509.78;5054652;28;20123;-49
2024/03/16 00:19:55;;;;;;;17.67;4.55;;;;;;;10.02;100.00;69509.78;5038254;28;20484;-48
2024/03/16 00:22:23;;;;;;;20.95;4.90;;;;;;;10.03;100.00;69511.53;5054528;28;20041;-46
2024/03/16 00:24:51;;;;;;;13.63;4.05;;;;;;;10.04;100.00;69512.72;5054443;28;20131;-52
2024/03/16 00:27:19;;;;;;;18.00;4.60;;;;;;;10.01;100.00;69511.22;5054487;28;20052;-51
2024/03/16 00:29:47;;;;;;;18.00;6.03;;;;;;;10.02;100.00;69507.78;5053874;28;20469;-48
2024/03/16 00:32:16;;;;;;;19.98;4.55;;;;;;;10.03;100.00;69510.97;5054253;28;20040;-47
2024/03/16 00:34:44;;;;;;;20.83;5.05;;;;;;;10.02;100.00;69507.78;5053798;28;20060;-50
2024/03/16 00:37:13;;;;;;;14.23;4.78;;;;;;;10.05;100.00;69513.28;5054129;28;20446;-52
2024/03/16 00:39:41;;;;;;;24.67;5.05;;;;;;;10.06;100.00;69511.84;5054083;28;20037;-49
2024/03/16 00:42:10;;;;;;;23.05;4.70;;;;;;;10.05;100.00;69510.66;5054014;28;20500;-46
2024/03/16 00:44:38;;;;;;;20.42;5.20;;;;;;;10.05;100.00;69515.88;5053375;28;20053;-48
2024/03/16 00:47:06;;;;;;;18.50;4.32;;;;;;;10.01;100.00;69511.22;5053642;28;20055;-47
2024/03/16 00:49:34;;;;;;;22.88;5.22;;;;;;;10.02;100.00;69512.41;5053755;28;20052;-48
2024/03/16 00:52:05;;;;;;;16.35;4.85;;;;;;;10.00;100.00;69505.44;5054364;28;20065;-48
2024/03/16 00:54:34;;;;;;;17.73;5.05;;;;;;;10.03;100.00;69506.31;5053339;28;20511;-47
2024/03/16 00:57:02;;;;;;;18.05;5.10;;;;;;;9.93;100.00;69497.84;5053378;28;20048;-48
2024/03/16 00:59:30;;;;;;;19.42;4.80;;;;;;;9.91;100.00;69500.16;5053235;28;20049;-48
2024/03/16 01:01:58;;;;;;;19.77;5.50;;;;;;;9.88;100.00;69491.44;5053824;28;20037;-50
2024/03/16 01:04:27;;;;;;;20.73;5.70;;;;;;;9.84;100.00;69489.38;5053655;28;20094;-46
2024/03/16 01:06:55;;;;;;;21.52;5.20;;;;;;;9.82;100.00;69483.00;5053852;28;20052;-47
2024/03/16 01:09:23;;;;;;;14.52;5.00;;;;;;;9.82;100.00;69483.00;5053728;28;20097;-47
2024/03/16 01:11:52;;;;;;;21.80;5.72;;;;;;;9.80;100.00;69483.28;5053610;28;20045;-46
2024/03/16 01:14:20;;;;;;;17.23;5.60;;;;;;;9.80;100.00;69487.91;5053582;28;20503;-49
2024/03/16 01:16:48;;;;;;;24.98;6.38;;;;;;;9.77;100.00;69484.97;5053495;28;20052;-49
2024/03/16 01:19:16;;;;;;;23.60;6.40;;;;;;;9.74;100.00;69481.47;5053620;28;20048;-52
2024/03/16 01:21:44;;;;;;;22.17;6.65;;;;;;;9.73;100.00;69477.69;5051616;28;20052;-52
2024/03/16 01:24:12;;;;;;;20.55;6.45;;;;;;;9.74;100.00;69475.69;5050342;28;20549;-51
2024/03/16 01:26:41;;;;;;;21.42;6.88;;;;;;;9.74;100.00;69480.91;5053046;28;20408;-51
2024/03/16 01:29:13;;;;;;;24.23;7.05;;;;;;;9.70;100.00;69471.03;5050532;28;20045;-52
2024/03/16 01:31:41;;;;;;;;;;;;;;;9.73;100.00;69474.53;5036629;28;20054;-49
2024/03/16 01:34:10;;;;;;;18.70;6.95;;;;;;;9.73;100.00;69477.13;5103363;28;20383;-50
2024/03/16 01:36:39;;;;;;;20.27;8.00;;;;;;;9.73;100.00;69474.53;5053571;28;20145;-51
2024/03/16 01:39:11;;;;;;;18.98;7.43;;;;;;;9.72;100.00;69473.94;5053689;28;20439;-52
2024/03/16 01:41:40;;;;;;;17.13;7.22;;;;;;;9.72;100.00;69473.34;5055293;28;20044;-50
2024/03/16 01:44:11;;;;;;;20.57;7.73;;;;;;;9.67;100.00;69470.72;5056643;28;20054;-51
2024/03/16 01:46:41;;;;;;;16.05;6.90;;;;;;;9.71;100.00;69475.38;5054233;28;20480;-53
2024/03/16 01:49:09;;;;;;;22.45;7.13;;;;;;;9.72;100.00;69473.34;5054975;28;20048;-52
2024/03/16 01:51:38;;;;;;;20.10;7.03;;;;;;;9.67;100.00;69470.13;5056745;28;20043;-51
2024/03/16 01:54:10;;;;;;;21.35;7.50;;;;;;;9.61;100.00;69461.69;5057790;28;20045;-51
2024/03/16 01:56:39;;;;;;;22.40;7.10;;;;;;;9.62;100.00;69465.47;5057430;28;20098;-52
2024/03/16 01:59:07;;;;;;;23.13;7.75;;;;;;;9.63;100.00;69466.63;5057259;28;20047;-51
2024/03/16 02:01:35;;;;;;;23.40;8.20;;;;;;;9.64;100.00;69465.19;5054910;28;20052;-52
2024/03/16 02:04:04;;;;;;;22.17;8.25;;;;;;;9.60;100.00;69462.56;5053795;28;20048;-51
2024/03/16 02:06:32;;;;;;;22.02;8.45;;;;;;;9.59;100.00;69464.00;5053207;28;20048;-50
2024/03/16 02:09:00;;;;;;;21.58;6.72;;;;;;;9.57;100.00;69457.03;5057218;28;20059;-52
2024/03/16 02:11:28;;;;;;;22.10;7.43;;;;;;;9.57;100.00;69456.44;5055499;28;20132;-50
2024/03/16 02:13:56;;;;;;;20.55;7.70;;;;;;;9.59;100.00;69461.38;5053679;28;20143;-52
2024/03/16 02:16:23;;;;;;;19.30;7.30;;;;;;;9.59;100.00;69459.34;5053929;28;20049;-50
2024/03/16 02:18:51;;;;;;;22.05;7.95;;;;;;;9.59;100.00;69458.78;5053514;28;20053;-50
2024/03/16 02:21:20;;;;;;;20.48;7.55;;;;;;;9.55;100.00;69457.28;5053278;28;20090;-52
2024/03/16 02:23:48;;;;;;;19.88;7.57;;;;;;;9.59;100.00;69464.56;5054480;28;20051;-53
2024/03/16 02:26:16;;;;;;;21.13;7.72;;;;;;;9.59;100.00;69461.38;5040313;28;20044;-50
2024/03/16 02:28:45;;;;;;;22.17;7.75;;;;;;;9.62;100.00;69465.47;5054648;28;20119;-52
2024/03/16 02:31:13;;;;;;;26.70;7.85;;;;;;;9.57;100.00;69459.63;5053117;28;20878;-49
2024/03/16 02:33:42;;;;;;;25.95;7.88;;;;;;;9.57;100.00;69462.25;5036225;28;20045;-52
2024/03/16 02:36:10;;;;;;;22.42;8.85;;;;;;;9.57;100.00;69456.44;5053828;28;20060;-51
2024/03/16 02:38:40;;;;;;;22.60;8.60;;;;;;;9.58;100.00;69460.22;5056574;28;20048;-53
2024/03/16 02:41:08;;;;;;;26.38;9.38;;;;;;;9.58;100.00;69462.81;5057160;28;20104;-49
2024/03/16 02:43:36;;;;;;;28.67;10.10;;;;;;;9.57;100.00;69456.44;5056063;28;20043;-52
2024/03/16 02:46:05;;;;;;;28.15;9.88;;;;;;;9.56;100.00;69457.91;5055281;28;20072;-51
2024/03/16 02:48:33;;;;;;;25.08;10.15;;;;;;;9.53;100.00;69454.97;5054808;28;20072;-52
2024/03/16 02:51:01;;;;;;;27.90;10.00;;;;;;;9.53;100.00;69454.38;5051028;28;20443;-51
2024/03/16 02:53:30;;;;;;;22.40;9.98;;;;;;;9.57;100.00;69461.66;5051749;28;20476;-52
2024/03/16 02:55:59;;;;;;;27.13;10.30;;;;;;;9.55;100.00;69454.13;5051999;28;20047;-49
2024/03/16 02:58:27;;;;;;;27.10;10.02;;;;;;;9.55;100.00;69454.69;5055508;28;20517;-52
2024/03/16 03:00:55;;;;;;;28.60;11.43;;;;;;;9.57;100.00;69457.03;5054356;28;20087;-49
2024/03/16 03:03:26;;;;;;;31.00;11.75;;;;;;;9.53;100.00;69459.59;5084896;28;20051;-52
2024/03/16 03:05:54;;;;;;;30.50;12.63;;;;;;;9.50;100.00;69453.50;5036701;28;20513;-52
2024/03/16 03:08:22;;;;;;;26.40;11.27;;;;;;;9.43;100.00;69443.31;5088068;28;20047;-51
2024/03/16 03:10:51;;;;;;;28.80;12.73;;;;;;;9.38;100.00;69437.47;5054918;28;20110;-51
2024/03/16 03:13:19;;;;;;;25.23;11.98;;;;;;;9.36;100.00;69429.94;5054671;28;20056;-51
2024/03/16 03:15:49;;;;;;;31.55;13.00;;;;;;;9.31;100.00;69427.28;5054735;28;20048;-51
2024/03/16 03:18:24;;;;;;;26.63;12.70;;;;;;;9.32;100.00;69428.47;5055128;28;20059;-50
2024/03/16 03:20:52;;;;;;;23.13;9.70;;;;;;;9.26;100.00;69424.06;5055281;28;20044;-48
2024/03/16 03:23:21;;;;;;;16.33;6.78;;;;;;;9.22;100.00;69420.00;5051642;28;20064;-51
2024/03/16 03:25:49;;;;;;;18.05;5.93;;;;;;;9.05;100.00;69402.78;5051816;28;20372;-48
2024/03/16 03:28:17;;;;;;;16.20;5.97;;;;;;;9.01;100.00;69398.09;5054541;28;20407;-50
2024/03/16 03:30:53;;;;;;;14.18;5.93;;;;;;;9.01;100.00;69392.91;5055109;28;20041;-49
2024/03/16 03:33:21;;;;;;;13.77;5.13;;;;;;;9.00;100.00;69397.53;5052351;28;20052;-51
2024/03/16 03:35:49;;;;;;;14.93;5.15;;;;;;;8.98;100.00;69394.63;5050851;28;20044;-50
2024/03/16 03:38:20;;;;;;;13.63;4.22;;;;;;;8.96;100.00;69385.63;5054717;28;20044;-50
2024/03/16 03:40:48;;;;;;;11.35;4.07;;;;;;;8.95;100.00;69386.50;5054383;28;20055;-48
2024/03/16 03:43:19;;;;;;;9.95;3.47;;;;;;;8.95;100.00;69389.09;5054381;28;20076;-50
2024/03/16 03:46:02;;;;;;;11.55;3.88;;;;;;;8.91;100.00;69384.44;5145192;27;20537;-50
2024/03/16 03:48:43;;;;;;;8.90;4.43;;;;;;;8.87;100.00;69384.97;5107718;28;20087;-51
2024/03/16 03:51:14;;;;;;;9.43;4.93;;;;;;;8.83;100.00;69375.09;5109508;28;20130;-48
2024/03/16 03:53:43;;;;;;;10.00;4.95;;;;;;;8.74;100.00;69363.19;5108253;28;20051;-49
2024/03/16 03:56:11;;;;;;;11.27;5.07;;;;;;;8.73;100.00;69364.03;5108672;28;20039;-52
2024/03/16 03:58:39;;;;;;;10.90;5.28;;;;;;;8.63;100.00;69350.94;5108345;28;20043;-52
2024/03/16 04:01:08;;;;;;;11.68;5.72;;;;;;;8.65;100.00;69352.13;5111458;28;20050;-51
2024/03/16 04:03:37;;;;;;;11.95;6.43;;;;;;;8.65;100.00;69352.13;5110544;28;20506;-49
2024/03/16 04:06:08;;;;;;;11.57;6.25;;;;;;;8.59;100.00;69348.88;5107926;28;20118;-51
2024/03/16 04:08:36;;;;;;;12.77;6.45;;;;;;;8.57;100.00;69343.38;5108035;28;20047;-52
2024/03/16 04:11:05;;;;;;;11.43;6.55;;;;;;;8.56;100.00;69342.78;5108020;28;20486;-53
2024/03/16 04:13:34;;;;;;;12.00;7.45;;;;;;;8.58;100.00;69347.13;5107769;28;20051;-50
2024/03/16 04:16:02;;;;;;;13.30;7.72;;;;;;;8.56;100.00;69345.41;5110112;28;20039;-51
2024/03/16 04:18:30;;;;;;;12.25;6.93;;;;;;;8.50;100.00;69335.78;5108136;28;20138;-51
2024/03/16 04:21:03;;;;;;;11.30;5.65;;;;;;;8.41;100.00;69325.28;5106965;28;20039;-52
2024/03/16 04:23:34;;;;;;;9.93;5.55;;;;;;;8.36;100.00;69320.03;5108446;28;20067;-52
2024/03/16 04:26:02;;;;;;;8.60;5.00;;;;;;;8.35;100.00;69320.91;5109405;28;20079;-51
2024/03/16 04:28:31;;;;;;;8.38;3.70;;;;;;;8.21;100.00;69305.75;5094137;28;20498;-49
2024/03/16 04:30:59;;;;;;;5.20;2.40;;;;;;;8.11;100.00;69294.69;5110761;28;20114;-50
2024/03/16 04:33:30;;;;;;;5.07;2.38;;;;;;;8.05;100.00;69290.28;5111197;28;20051;-48
2024/03/16 04:35:59;;;;;;;5.32;2.35;;;;;;;8.02;100.00;69281.03;5110719;28;20509;-51
2024/03/16 04:38:27;;;;;;;4.68;2.03;;;;;;;7.95;100.00;69276.06;5110746;28;20059;-52
2024/03/16 04:40:56;;;;;;;4.85;2.25;;;;;;;7.92;100.00;69275.75;5109854;28;20444;-48
2024/03/16 04:43:25;;;;;;;4.88;2.00;;;;;;;7.90;100.00;69270.22;5091203;28;20099;-50
2024/03/16 04:45:53;;;;;;;4.38;1.85;;;;;;;7.95;100.00;69279.22;5106429;28;20151;-51
2024/03/16 04:48:22;;;;;;;5.65;2.10;;;;;;;7.93;100.00;69271.13;5109312;28;20051;-49
2024/03/16 04:50:50;;;;;;;4.82;2.00;;;;;;;7.90;100.00;69270.22;5089700;28;20070;-49
2024/03/16 04:53:18;;;;;;;4.82;1.98;;;;;;;7.89;100.00;69271.66;5106458;28;20391;-51
2024/03/16 04:55:46;;;;;;;5.22;1.85;;;;;;;7.91;100.00;69268.81;5102148;28;20784;-50
2024/03/16 04:58:14;;;;;;;7.05;1.95;;;;;;;7.89;100.00;69272.22;5093532;28;20069;-50
2024/03/16 05:00:42;;;;;;;7.63;1.88;;;;;;;7.85;100.00;69261.81;5093547;28;20096;-50
2024/03/16 05:03:11;;;;;;;5.82;1.80;;;;;;;7.85;100.00;69264.41;5093804;28;20116;-51
2024/03/16 05:05:39;;;;;;;5.82;1.70;;;;;;;7.81;100.00;69260.31;5095931;28;20040;-49
2024/03/16 05:08:08;;;;;;;7.43;2.17;;;;;;;7.81;100.00;69257.16;5096612;28;20506;-49
2024/03/16 05:10:36;;;;;;;5.95;2.05;;;;;;;7.81;100.00;69260.31;5079816;28;20047;-50
2024/03/16 05:13:04;;;;;;;7.75;1.67;;;;;;;7.72;100.00;69250.44;5096380;28;20064;-48
2024/03/16 05:15:33;;;;;;;5.75;1.70;;;;;;;7.72;100.00;69255.63;5096455;28;20039;-50
2024/03/16 05:18:01;;;;;;;6.70;1.50;;;;;;;7.75;100.00;69253.91;5096093;28;20497;-49
2024/03/16 05:20:29;;;;;;;8.77;1.55;;;;;;;7.71;100.00;69246.09;5092031;28;20043;-52
2024/03/16 05:23:02;;;;;;;4.88;1.60;;;;;;;7.73;100.00;69248.41;5093119;28;20053;-49
2024/03/16 05:25:30;;;;;;;8.23;1.80;;;;;;;7.68;100.00;69247.78;5076891;28;20136;-51
2024/03/16 05:27:59;;;;;;;5.45;1.60;;;;;;;7.72;100.00;69244.66;5092589;28;20047;-49
2024/03/16 05:30:27;;;;;;;3.72;1.80;;;;;;;7.72;100.00;69247.84;5095786;28;20452;-51
2024/03/16 05:32:55;;;;;;;4.00;1.60;;;;;;;7.75;100.00;69248.16;5096323;28;20047;-48
2024/03/16 05:35:27;;;;;;;4.88;1.90;;;;;;;7.71;100.00;69251.84;5096029;28;20047;-48
2024/03/16 05:37:56;;;;;;;6.75;1.80;;;;;;;7.70;100.00;69250.13;5096671;28;20082;-51
2024/03/16 05:40:24;;;;;;;6.55;1.60;;;;;;;7.72;100.00;69247.25;5095944;28;20414;-50
2024/03/16 05:42:52;;;;;;;5.18;1.38;;;;;;;7.64;100.00;69235.34;5095718;28;20089;-49
2024/03/16 05:45:21;;;;;;;4.35;1.40;;;;;;;7.57;100.00;69233.53;5095214;28;20101;-50
2024/03/16 05:47:49;;;;;;;5.10;1.50;;;;;;;7.55;100.00;69230.63;5094409;28;20527;-52
2024/03/16 05:50:17;;;;;;;6.07;1.17;;;;;;;7.52;100.00;69224.53;5091033;28;20050;-52
2024/03/16 05:52:45;;;;;;;6.10;1.10;;;;;;;7.49;100.00;69221.63;5094254;28;20035;-48
2024/03/16 05:55:15;;;;;;;4.05;1.40;;;;;;;7.50;100.00;69224.81;5095363;28;20039;-51
2024/03/16 05:57:43;;;;;;;6.05;1.58;;;;;;;7.45;100.00;69219.56;5095557;28;20582;-49
2024/03/16 06:00:14;;;;;;;4.53;1.52;;;;;;;7.42;100.00;69216.09;5094175;28;20044;-48
2024/03/16 06:02:42;;;;;;;7.40;1.80;;;;;;;7.40;100.00;69213.75;5092460;28;20093;-48
2024/03/16 06:05:10;;;;;;;7.63;1.50;;;;;;;7.34;100.00;69204.19;5091054;28;20066;-52
2024/03/16 06:07:39;;;;;;;5.90;1.40;;;;;;;7.26;100.00;69196.00;5091069;28;20518;-52
2024/03/16 06:10:10;;;;;;;6.20;1.42;;;;;;;7.25;100.00;69196.88;5094346;28;20042;-49
2024/03/16 06:12:38;;;;;;;5.07;1.52;;;;;;;7.20;100.00;69191.63;5092812;28;20055;-52
2024/03/16 06:15:07;;;;;;;4.32;1.38;;;;;;;7.12;100.00;69184.91;5092609;28;20424;-50
2024/03/16 06:17:35;;;;;;;3.33;1.10;;;;;;;7.03;100.00;69169.25;5094787;28;20383;-50
2024/03/16 06:20:04;;;;;;;5.55;1.52;;;;;;;7.03;100.00;69172.41;5077919;28;20056;-50
2024/03/16 06:22:32;;;;;;;4.72;1.33;;;;;;;6.94;100.00;69164.56;5094830;28;20048;-49
2024/03/16 06:25:00;;;;;;;4.50;0.80;;;;;;;6.93;100.00;69158.19;5094807;28;20032;-47
2024/03/16 06:27:29;;;;;;;4.63;1.20;;;;;;;6.84;100.00;69147.72;5095063;28;20078;-49
2024/03/16 06:29:57;;;;;;;5.72;0.80;;;;;;;6.88;100.00;69154.97;5092865;28;20571;-48
2024/03/16 06:32:25;;;;;;;4.00;1.00;;;;;;;6.90;100.00;69159.91;5092152;28;20044;-48
2024/03/16 06:34:53;;;;;;;6.85;1.30;;;;;;;6.92;100.00;69154.44;5090954;28;20047;-52
2024/03/16 06:37:24;;;;;;;3.78;0.90;;;;;;;6.93;100.00;69158.78;5075406;28;20047;-49
2024/03/16 06:39:55;;;;;;;7.13;1.23;;;;;;;6.93;100.00;69161.38;5092001;28;20525;-49
2024/03/16 06:42:24;;;;;;;4.10;0.93;;;;;;;6.88;100.00;69155.53;5093010;28;20380;-46
2024/03/16 06:44:53;;;;;;;4.97;0.75;;;;;;;6.89;100.00;69159.31;5094163;28;20040;-45
2024/03/16 06:47:21;;;;;;;5.43;1.00;;;;;;;6.89;100.00;69161.91;5094273;28;20054;-46
2024/03/16 06:49:50;;;;;;;7.57;0.90;;;;;;;6.87;100.00;69157.00;5093981;28;20449;-47
2024/03/16 06:52:24;;;;;;;3.60;1.08;;;;;;;6.99;100.00;69167.19;5090494;28;20039;-46
2024/03/16 06:54:52;;;;;;;5.10;1.02;;;;;;;7.08;100.00;69178.25;5092994;28;20043;-46
2024/03/16 06:57:23;;;;;;;5.63;1.42;;;;;;;7.11;100.00;69181.16;5094465;28;20498;-46
2024/03/16 06:59:51;;;;;;;4.85;1.10;;;;;;;7.10;100.00;69183.19;5094195;28;20134;-47
2024/03/16 07:02:21;;;;;;;3.50;0.75;;;;;;;7.12;100.00;69184.91;5094099;28;20047;-48
2024/03/16 07:04:50;;;;;;;6.13;0.95;;;;;;;7.15;100.00;69185.81;5094288;28;20146;-47
2024/03/16 07:07:18;;;;;;;4.63;0.80;;;;;;;7.09;100.00;69179.41;5077041;28;20040;-48
2024/03/16 07:09:46;;;;;;;5.32;1.13;;;;;;;7.01;100.00;69166.91;5093780;28;20570;-47
2024/03/16 07:12:15;;;;;;;8.93;1.17;;;;;;;6.98;100.00;69158.84;5093670;28;20638;-48
2024/03/16 07:14:43;;;;;;;10.50;1.30;;;;;;;7.00;100.00;69170.97;5093600;28;20044;-49
2024/03/16 07:17:11;;;;;;;7.72;1.30;;;;;;;7.04;100.00;69173.00;5093515;28;20052;-48
2024/03/16 07:19:43;;;;;;;4.65;1.23;;;;;;;7.02;100.00;69168.69;5092709;28;20375;-50
2024/03/16 07:22:12;;;;;;;8.60;1.50;;;;;;;7.03;100.00;69169.81;5089363;28;20410;-48
2024/03/16 07:24:41;;;;;;;5.05;1.23;;;;;;;7.05;100.00;69174.19;5076405;28;20525;-52
2024/03/16 07:27:09;;;;;;;5.07;1.52;;;;;;;7.07;100.00;69173.91;5090922;28;20055;-50
2024/03/16 07:29:38;;;;;;;6.38;1.40;;;;;;;7.09;100.00;69181.44;5090583;28;20039;-50
2024/03/16 07:32:06;;;;;;;6.63;1.10;;;;;;;7.01;100.00;69167.50;5090956;28;20537;-49
2024/03/16 07:34:35;;;;;;;7.95;1.40;;;;;;;7.01;100.00;69169.50;5090369;28;20039;-48
2024/03/16 07:37:04;;;;;;;8.93;1.50;;;;;;;7.00;100.00;69168.38;5089024;28;20362;-49
2024/03/16 07:39:32;;;;;;;7.80;1.40;;;;;;;7.04;100.00;69175.63;5093332;28;20039;-49
2024/03/16 07:42:00;;;;;;;6.72;1.33;;;;;;;7.05;100.00;69174.19;5089868;28;20051;-50
2024/03/16 07:44:29;;;;;;;9.05;1.48;;;;;;;7.04;100.00;69173.00;5091082;28;20109;-51
2024/03/16 07:46:57;;;;;;;5.95;1.45;;;;;;;7.05;100.00;69171.59;5092423;28;20154;-53
2024/03/16 07:49:25;;;;;;;10.52;1.48;;;;;;;7.08;100.00;69180.25;5073415;28;20051;-53
2024/03/16 07:51:53;;;;;;;9.80;1.70;;;;;;;7.16;100.00;69186.97;5091646;28;20526;-52
2024/03/16 07:54:21;;;;;;;6.03;1.50;;;;;;;7.16;100.00;69186.97;5093438;28;20058;-53
2024/03/16 07:56:49;;;;;;;6.18;1.30;;;;;;;7.23;100.00;69191.94;5092609;28;20046;-50
2024/03/16 07:59:19;;;;;;;8.55;1.20;;;;;;;7.26;100.00;69198.59;5090133;28;20059;-50
2024/03/16 08:01:47;;;;;;;9.02;1.50;;;;;;;7.24;100.00;69201.47;5090396;28;20712;-50
2024/03/16 08:04:16;;;;;;;4.97;1.20;;;;;;;7.30;100.00;69202.13;5090426;28;20044;-50
2024/03/16 08:06:44;;;;;;;8.85;1.52;;;;;;;7.32;100.00;69205.03;5089545;28;20048;-49
2024/03/16 08:09:12;;;;;;;8.88;1.67;;;;;;;7.34;100.00;69204.75;5090147;28;20059;-52
2024/03/16 08:11:41;;;;;;;10.35;1.77;;;;;;;7.35;100.00;69207.91;5091040;28;20048;-49
2024/03/16 08:14:10;;;;;;;7.70;1.73;;;;;;;7.33;100.00;69208.19;5075200;28;20052;-51
2024/03/16 08:16:38;;;;;;;5.05;1.50;;;;;;;7.36;100.00;69206.50;5090848;28;20067;-49
2024/03/16 08:19:06;;;;;;;6.30;1.30;;;;;;;7.35;100.00;69208.53;5092535;28;20410;-49
2024/03/16 08:21:36;;;;;;;7.72;1.80;;;;;;;7.36;100.00;69209.09;5076497;28;20051;-49
2024/03/16 08:24:05;;;;;;;8.73;1.45;;;;;;;7.40;100.00;69213.75;5093337;28;20043;-49
2024/03/16 08:26:33;;;;;;;3.67;1.23;;;;;;;7.47;100.00;69224.50;5093604;28;20043;-48
2024/03/16 08:29:01;;;;;;;9.60;1.55;;;;;;;7.58;100.00;69231.53;5093199;28;20134;-49
2024/03/16 08:31:30;;;;;;;6.03;1.27;;;;;;;7.61;100.00;69240.78;5094753;28;20490;-51
2024/03/16 08:33:58;;;;;;;10.05;1.73;;;;;;;7.69;100.00;69246.34;5096785;28;20048;-49
2024/03/16 08:36:26;;;;;;;7.85;1.38;;;;;;;7.69;100.00;69248.94;5096898;28;20044;-48
2024/03/16 08:38:54;;;;;;;6.07;1.67;;;;;;;7.75;100.00;69253.34;5096684;28;20513;-48
2024/03/16 08:41:23;;;;;;;9.48;1.52;;;;;;;7.79;100.00;69258.56;5096376;28;20376;-49
2024/03/16 08:43:51;;;;;;;9.65;1.42;;;;;;;7.89;100.00;69267.03;5094162;28;20055;-52
2024/03/16 08:46:19;;;;;;;7.68;1.70;;;;;;;7.98;100.00;69276.38;5076298;28;20383;-49
2024/03/16 08:48:49;;;;;;;7.30;1.58;;;;;;;8.05;100.00;69284.53;5093566;28;20138;-49
2024/03/16 08:51:19;;;;;;;7.28;1.55;;;;;;;8.11;100.00;69291.50;5092479;28;20097;-51
2024/03/16 08:53:48;;;;;;;10.63;1.67;;;;;;;8.21;100.00;69303.16;5093496;28;20055;-51
2024/03/16 08:56:16;;;;;;;9.07;1.45;;;;;;;8.28;100.00;69316.50;5095693;28;20618;-50
2024/03/16 08:58:44;;;;;;;8.35;1.70;;;;;;;8.36;100.00;69322.66;5096905;28;20040;-49
2024/03/16 09:01:14;;;;;;;9.93;1.50;;;;;;;8.38;100.00;69321.78;5080348;28;20494;-48
2024/03/16 09:03:43;;;;;;;6.65;1.20;;;;;;;8.51;100.00;69341.56;5078631;28;20516;-51
2024/03/16 09:06:12;;;;;;;6.90;1.42;;;;;;;8.61;100.00;69348.59;5092449;28;20067;-50
2024/03/16 09:08:42;;;;;;;4.25;1.10;;;;;;;8.68;100.00;69356.19;5094962;28;20035;-52
2024/03/16 09:11:11;;;;;;;5.93;1.60;;;;;;;8.73;100.00;69366.66;5096037;28;20443;-49
2024/03/16 09:13:39;;;;;;;8.95;1.20;;;;;;;8.70;100.00;69365.72;5096285;28;20059;-49
2024/03/16 09:16:07;;;;;;;8.40;1.38;;;;;;;8.67;100.00;69357.03;5095506;28;20499;-49
2024/03/16 09:18:36;;;;;;;6.10;1.35;;;;;;;8.69;100.00;69359.38;5092725;28;20091;-52
2024/03/16 09:21:05;;;;;;;7.22;1.40;;;;;;;8.69;100.00;69359.94;5092473;28;20410;-50
2024/03/16 09:23:34;;;;;;;5.68;1.20;;;;;;;8.73;100.00;69361.44;5093198;28;20040;-53
2024/03/16 09:26:04;;;;;;;6.72;1.70;;;;;;;8.80;100.00;69372.19;5092787;28;20039;-51
2024/03/16 09:28:35;;;;;;;3.78;1.30;;;;;;;8.83;100.00;69375.69;5096586;28;20089;-51
2024/03/16 09:31:05;;;;;;;12.48;2.53;;;;;;;8.90;100.00;69383.25;5096252;28;20043;-53
2024/03/16 09:33:33;;;;;;;5.55;1.25;;;;;;;8.94;100.00;69385.31;5096500;28;20372;-54
2024/03/16 09:36:02;;;;;;;7.50;1.23;;;;;;;8.96;100.00;69392.88;5096109;28;20085;-52
2024/03/16 09:38:31;;;;;;;7.28;1.27;;;;;;;8.98;100.00;69395.19;5092462;28;20393;-52
2024/03/16 09:41:00;;;;;;;5.28;1.30;;;;;;;9.07;100.00;69402.50;5092434;28;20097;-51
2024/03/16 09:43:28;;;;;;;9.50;1.55;;;;;;;9.19;100.00;69418.50;5093226;28;20082;-48
2024/03/16 09:45:58;;;;;;;7.60;1.77;;;;;;;9.11;100.00;69405.13;5079393;28;20514;-49
2024/03/16 09:48:25;;;;;;;7.28;1.35;;;;;;;9.13;100.00;69404.28;5076696;28;20391;-49
2024/03/16 09:50:55;;;;;;;7.43;1.30;;;;;;;9.16;100.00;69412.97;5074544;28;20554;-53
2024/03/16 09:53:23;;;;;;;8.27;1.73;;;;;;;9.18;100.00;69417.94;5059383;28;20066;-52
2024/03/16 09:55:54;;;;;;;7.93;1.77;;;;;;;9.20;100.00;69417.66;5079074;28;20048;-48
2024/03/16 09:58:22;;;;;;;8.82;1.33;;;;;;;9.25;100.00;69420.88;5062670;28;20048;-52
2024/03/16 10:00:53;;;;;;;6.38;1.60;;;;;;;9.26;100.00;69424.66;5079375;28;20092;-49
2024/03/16 10:03:21;;;;;;;5.88;1.30;;;;;;;9.15;100.00;69406.63;5078791;28;20047;-50
2024/03/16 10:05:48;;;;;;;6.78;1.30;;;;;;;9.17;100.00;69414.16;5095210;28;20460;-52
2024/03/16 10:08:17;;;;;;;6.95;1.60;;;;;;;9.18;100.00;69412.72;5078363;28;20040;-52
2024/03/16 10:10:44;;;;;;;11.45;1.52;;;;;;;9.17;100.00;69408.94;5095227;28;20397;-50
2024/03/16 10:13:11;;;;;;;4.53;0.93;;;;;;;9.24;100.00;69422.34;5077887;28;20036;-52
2024/03/16 10:15:43;;;;;;;6.15;1.23;;;;;;;9.16;100.00;69412.97;5077917;28;20110;-49
2024/03/16 10:18:11;;;;;;;5.05;1.00;;;;;;;9.13;100.00;69406.88;5078067;28;20043;-50
2024/03/16 10:20:39;;;;;;;6.47;1.05;;;;;;;9.19;100.00;69413.88;5074421;28;20047;-52
2024/03/16 10:23:06;;;;;;;5.88;1.00;;;;;;;9.17;100.00;69411.56;5075197;28;20044;-51
2024/03/16 10:25:34;;;;;;;6.13;1.10;;;;;;;9.21;100.00;69418.81;5076888;28;20040;-50
2024/03/16 10:28:01;;;;;;;7.82;1.20;;;;;;;9.22;100.00;69414.78;5078007;28;20038;-52
2024/03/16 10:30:28;;;;;;;6.72;1.52;;;;;;;9.19;100.00;69413.28;5077821;28;20043;-52
2024/03/16 10:32:56;;;;;;;7.35;1.75;;;;;;;9.18;100.00;69417.94;5094832;28;20096;-50
2024/03/16 10:35:26;;;;;;;5.63;1.20;;;;;;;9.15;100.00;69409.22;5093083;28;20062;-50
2024/03/16 10:37:53;;;;;;;5.75;0.90;;;;;;;9.10;100.00;69406.56;5075258;28;20054;-51
2024/03/16 10:40:21;;;;;;;6.25;1.48;;;;;;;9.16;100.00;69412.97;5091461;28;20065;-52
2024/03/16 10:42:50;;;;;;;5.03;0.90;;;;;;;9.19;100.00;69413.28;5093435;28;20048;-51
2024/03/16 10:45:17;;;;;;;6.38;1.10;;;;;;;9.20;100.00;69417.66;5074572;28;20052;-52
2024/03/16 10:47:45;;;;;;;6.15;1.33;;;;;;;9.25;100.00;69420.31;5075173;28;20043;-52
2024/03/16 10:50:15;;;;;;;5.07;1.17;;;;;;;9.32;100.00;69427.88;5078409;28;20418;-51
2024/03/16 10:52:43;;;;;;;5.88;1.60;;;;;;;9.37;100.00;69439.50;5077672;28;20047;-52
2024/03/16 10:55:14;;;;;;;5.72;1.60;;;;;;;9.45;100.00;69445.66;5077308;28;20067;-50
2024/03/16 10:57:41;;;;;;;7.45;1.30;;;;;;;9.52;100.00;69450.63;5077438;28;20038;-50
2024/03/16 11:00:16;;;;;;;5.53;1.20;;;;;;;9.63;100.00;69463.44;5076649;28;20130;-52
2024/03/16 11:02:52;;;;;;;9.00;1.25;;;;;;;9.70;100.00;69474.22;5091569;28;20043;-51
2024/03/16 11:05:47;;;;;;;5.28;1.50;;;;;;;9.70;100.00;69471.59;5073696;28;20062;-49
2024/03/16 11:08:36;;;;;;;7.32;1.30;;;;;;;9.67;100.00;69475.34;5080642;28;20051;-51
2024/03/16 11:11:04;;;;;;;7.53;1.42;;;;;;;9.64;100.00;69473.00;5096121;28;20048;-52
2024/03/16 11:13:31;;;;;;;5.85;1.13;;;;;;;9.70;100.00;69473.63;5075750;28;20052;-52
2024/03/16 11:15:58;;;;;;;5.05;1.10;;;;;;;9.87;100.00;69490.84;5073983;28;20059;-49
2024/03/16 11:18:46;;;;;;;4.47;1.17;;;;;;;10.06;100.00;69517.06;5076360;28;20131;-45
2024/03/16 11:21:17;;;;;;;6.10;1.60;;;;;;;10.26;100.00;69537.22;5078401;28;20043;-46
2024/03/16 11:23:44;;;;;;;6.97;1.20;;;;;;;10.42;100.00;69557.94;5077879;28;20406;-52
2024/03/16 11:26:45;;;;;;;8.15;1.20;;;;;;;10.56;100.00;69566.44;5076945;28;20039;-52
2024/03/16 11:29:14;;;;;;;5.93;1.23;;;;;;;10.64;100.00;69581.00;5093563;28;20089;-53
2024/03/16 11:31:41;;;;;;;6.13;1.10;;;;;;;10.67;100.00;69581.28;5076580;28;20517;-52
2024/03/16 11:34:14;;;;;;;11.13;1.48;;;;;;;10.65;100.00;69579.56;5076854;28;20048;-50
2024/03/16 11:36:44;;;;;;;7.63;1.50;;;;;;;10.60;100.00;69576.31;5091062;28;20054;-53